KSJC/SJC METAR and TAF weather

Enter ICAO airport designator
Station Type Date Time Source
KSJC METAR 2021/02/28 03:53 UTC NOAA

KSJC 280353Z 36005KT 10SM FEW080 SCT120 12/04 A3015 RMK AO2 SLP209 T01170039


Station Type Date Time Source
KSJC Decoded METAR 2021/02/28 03:53 UTC NOAA

SAN JOSE INTERNATIONAL AIRPORT, CA, United States (KSJC) 37-22N 121-55W 25M
Feb 27, 2021 - 10:53 PM EST / 2021.02.28 0353 UTC
Wind: from the N (360 degrees) at 6 MPH (5 KT):0
Visibility: 10 mile(s):0
Sky conditions: partly cloudy
Temperature: 53.1 F (11.7 C)
Dew Point: 39.0 F (3.9 C)
Relative Humidity: 58%
Pressure (altimeter): 30.15 in. Hg (1020 hPa)
ob: KSJC 280353Z 36005KT 10SM FEW080 SCT120 12/04 A3015 RMK AO2 SLP209 T01170039
cycle: 4

Station Type Date Time Source
KSJC TAF 2021/02/27 21:28 UTC NOAA

TAF
AMD KSJC 272125Z 2721/2818 31012G20KT P6SM SKC
FM280100 31009KT P6SM SKC
FM280400 VRB05KT P6SM SKC WS015/35025KT
FM281500 34010KT P6SM SKC

Example: see airport list